Time;durP1;ratioP1;P1;durP2;ratioP2;P2;SDS_P1;SDS_P2;PMS_P1;PMS_P2;Temp;Humidity;BMP_temperature;BMP_pressure;BME280_temperature;BME280_humidity;BME280_pressure;Samples;Min_cycle;Max_cycle;Signal;HPM_P1;HPM_P2
2022/09/22 00:03:57;;;;;;;4.25;0.43;;;;;;;;;;10398538;28;20046;-60
2022/09/22 00:09:00;;;;;;;0.93;0.30;;;;;;;;;;10398127;28;20128;-60
2022/09/22 00:14:21;;;;;;;2.92;0.43;;;;;;;;;;10371533;28;20081;-59
2022/09/22 00:19:25;;;;;;;1.02;0.50;;;;;;;;;;10391770;28;20632;-60
2022/09/22 00:24:27;;;;;;;1.77;0.50;;;;;;;;;;10393037;28;20112;-60
2022/09/22 00:29:30;;;;;;;0.98;0.40;;;;;;;;;;10394435;28;20048;-60
2022/09/22 00:34:32;;;;;;;3.05;0.50;;;;;;;;;;10391093;28;20128;-60
2022/09/22 00:39:34;;;;;;;2.65;0.30;;;;;;;;;;10389997;28;20053;-60
2022/09/22 00:44:40;;;;;;;1.20;0.45;;;;;;;;;;10390336;28;20140;-60
2022/09/22 00:49:48;;;;;;;0.73;0.32;;;;;;;;;;10388365;28;20356;-60
2022/09/22 00:54:51;;;;;;;5.50;1.00;;;;;;;;;;10393987;28;20508;-59
2022/09/22 00:59:54;;;;;;;5.65;0.50;;;;;;;;;;10388143;28;20073;-59
2022/09/22 01:04:56;;;;;;;5.68;0.60;;;;;;;;;;10365146;28;20123;-59
2022/09/22 01:09:58;;;;;;;3.75;0.47;;;;;;;;;;10386470;28;20051;-59
2022/09/22 01:15:30;;;;;;;0.80;0.40;;;;;;;;;;10392996;28;20089;-59
2022/09/22 01:20:37;;;;;;;1.02;0.40;;;;;;;;;;10368691;28;20129;-59
2022/09/22 01:25:58;;;;;;;3.15;0.65;;;;;;;;;;10364884;28;20141;-60
2022/09/22 01:31:07;;;;;;;2.25;0.55;;;;;;;;;;10376804;28;20140;-63
2022/09/22 01:36:30;;;;;;;1.52;0.60;;;;;;;;;;10388596;28;20057;-60
2022/09/22 01:41:32;;;;;;;7.05;0.60;;;;;;;;;;10394123;28;20051;-60
2022/09/22 01:46:37;;;;;;;2.40;0.50;;;;;;;;;;10390558;28;20048;-61
2022/09/22 01:52:12;;;;;;;1.77;0.65;;;;;;;;;;10389064;28;20106;-61
2022/09/22 01:57:21;;;;;;;2.95;0.68;;;;;;;;;;10349830;28;20080;-61
2022/09/22 02:02:30;;;;;;;2.42;0.45;;;;;;;;;;10396145;28;20243;-61
2022/09/22 02:07:35;;;;;;;1.00;0.80;;;;;;;;;;10396154;28;20057;-61
2022/09/22 02:12:37;;;;;;;6.88;1.10;;;;;;;;;;10397957;28;20048;-61
2022/09/22 02:17:40;;;;;;;3.65;0.77;;;;;;;;;;10402287;28;20551;-60
2022/09/22 02:22:42;;;;;;;1.27;0.68;;;;;;;;;;10381479;28;20125;-61
2022/09/22 02:27:46;;;;;;;3.88;0.68;;;;;;;;;;10395129;28;20045;-61
2022/09/22 02:32:50;;;;;;;1.45;0.60;;;;;;;;;;10398369;28;20116;-61
2022/09/22 02:37:52;;;;;;;3.45;0.70;;;;;;;;;;10369088;28;20124;-61
2022/09/22 02:42:54;;;;;;;1.88;0.68;;;;;;;;;;10397345;28;20455;-59
2022/09/22 02:47:58;;;;;;;2.42;0.80;;;;;;;;;;10388358;28;20137;-61
2022/09/22 02:53:01;;;;;;;2.40;0.80;;;;;;;;;;10388022;28;20059;-60
2022/09/22 02:58:03;;;;;;;4.20;0.80;;;;;;;;;;10368578;28;20140;-60
2022/09/22 03:03:06;;;;;;;2.15;0.70;;;;;;;;;;10389709;28;20403;-61
2022/09/22 03:08:08;;;;;;;3.97;0.50;;;;;;;;;;10388232;28;20111;-60
2022/09/22 03:13:10;;;;;;;1.50;0.50;;;;;;;;;;10389902;28;20137;-60
2022/09/22 03:18:19;;;;;;;1.25;0.50;;;;;;;;;;10387919;28;20041;-60
2022/09/22 03:23:21;;;;;;;1.15;0.60;;;;;;;;;;10393824;28;20077;-60
2022/09/22 03:28:23;;;;;;;2.85;0.85;;;;;;;;;;10402105;28;20047;-60
2022/09/22 03:33:25;;;;;;;1.85;0.80;;;;;;;;;;10387123;28;20156;-61
2022/09/22 03:38:27;;;;;;;5.40;0.68;;;;;;;;;;10385656;28;20096;-59
2022/09/22 03:43:30;;;;;;;2.38;0.80;;;;;;;;;;10390943;28;20462;-60
2022/09/22 03:48:32;;;;;;;1.65;0.80;;;;;;;;;;10369710;28;20107;-60
2022/09/22 03:53:34;;;;;;;4.93;0.90;;;;;;;;;;10383508;28;20049;-61
2022/09/22 03:58:37;;;;;;;2.72;0.82;;;;;;;;;;10383093;28;20091;-62
2022/09/22 04:03:39;;;;;;;0.95;0.55;;;;;;;;;;10395570;28;20146;-61
2022/09/22 04:08:41;;;;;;;2.38;0.80;;;;;;;;;;10393745;28;20543;-61
2022/09/22 04:13:45;;;;;;;2.80;0.70;;;;;;;;;;10398738;28;20120;-61
2022/09/22 04:18:47;;;;;;;2.40;0.77;;;;;;;;;;10400646;28;20484;-60
2022/09/22 04:23:49;;;;;;;2.70;0.90;;;;;;;;;;10393858;28;20133;-60
2022/09/22 04:28:51;;;;;;;1.55;0.80;;;;;;;;;;10392223;28;20114;-60
2022/09/22 04:33:54;;;;;;;2.53;0.80;;;;;;;;;;10402217;28;20061;-60
2022/09/22 04:38:56;;;;;;;2.40;0.73;;;;;;;;;;10399992;28;20664;-61
2022/09/22 04:43:58;;;;;;;2.42;0.88;;;;;;;;;;10361130;28;20045;-60
2022/09/22 04:49:00;;;;;;;6.82;0.70;;;;;;;;;;10374734;28;20419;-61
2022/09/22 04:54:02;;;;;;;3.55;1.00;;;;;;;;;;10398034;28;20398;-62
2022/09/22 04:59:04;;;;;;;1.92;0.68;;;;;;;;;;10391934;28;20125;-61
2022/09/22 05:04:06;;;;;;;4.55;0.80;;;;;;;;;;10387525;28;20041;-61
2022/09/22 05:09:08;;;;;;;2.88;1.00;;;;;;;;;;10382635;28;20546;-62
2022/09/22 05:14:13;;;;;;;3.50;0.88;;;;;;;;;;10373243;28;20208;-67
2022/09/22 05:19:15;;;;;;;1.55;0.80;;;;;;;;;;10372945;28;20040;-65
2022/09/22 05:24:17;;;;;;;1.60;0.93;;;;;;;;;;10397421;28;20116;-66
2022/09/22 05:29:19;;;;;;;3.47;1.00;;;;;;;;;;10385726;28;20055;-65
2022/09/22 05:34:26;;;;;;;;;;;;;;;;;;10367176;28;20406;-66
2022/09/22 05:39:28;;;;;;;2.42;0.93;;;;;;;;;;10387645;28;20665;-68
2022/09/22 05:44:30;;;;;;;1.65;0.60;;;;;;;;;;10357346;28;20148;-66
2022/09/22 05:49:32;;;;;;;1.75;0.75;;;;;;;;;;10376668;28;20129;-65
2022/09/22 05:54:35;;;;;;;1.65;1.00;;;;;;;;;;10397616;28;20072;-66
2022/09/22 05:59:37;;;;;;;1.73;1.05;;;;;;;;;;10401538;28;20045;-66
2022/09/22 06:04:39;;;;;;;1.95;1.00;;;;;;;;;;10369002;28;20045;-66
2022/09/22 06:09:41;;;;;;;5.45;1.20;;;;;;;;;;10374374;28;20405;-66
2022/09/22 06:14:43;;;;;;;1.88;0.82;;;;;;;;;;10396033;28;20128;-65
2022/09/22 06:19:49;;;;;;;2.95;1.02;;;;;;;;;;10381834;28;20141;-67
2022/09/22 06:24:51;;;;;;;4.20;1.00;;;;;;;;;;10384627;28;20136;-68
2022/09/22 06:29:53;;;;;;;4.63;1.00;;;;;;;;;;10369816;28;20045;-65
2022/09/22 06:35:00;;;;;;;2.92;1.38;;;;;;;;;;10371794;28;20041;-68
2022/09/22 06:40:02;;;;;;;4.18;1.27;;;;;;;;;;10376383;28;20147;-66
2022/09/22 06:45:04;;;;;;;2.42;1.38;;;;;;;;;;10398331;28;20608;-66
2022/09/22 06:50:08;;;;;;;2.58;1.08;;;;;;;;;;10357834;28;20074;-66
2022/09/22 06:55:11;;;;;;;1.92;1.23;;;;;;;;;;10380911;28;20455;-68
2022/09/22 07:00:15;;;;;;;1.85;1.08;;;;;;;;;;10387362;28;20046;-67
2022/09/22 07:05:17;;;;;;;2.85;1.20;;;;;;;;;;10387288;28;20126;-67
2022/09/22 07:10:19;;;;;;;2.63;1.27;;;;;;;;;;10375192;28;20563;-67
2022/09/22 07:15:21;;;;;;;4.07;0.95;;;;;;;;;;10376139;28;20500;-65
2022/09/22 07:20:23;;;;;;;3.55;0.88;;;;;;;;;;10382501;28;20124;-66
2022/09/22 07:25:27;;;;;;;5.10;1.55;;;;;;;;;;10389897;28;20060;-67
2022/09/22 07:30:29;;;;;;;6.45;1.10;;;;;;;;;;10384659;28;20107;-67
2022/09/22 07:35:34;;;;;;;3.70;1.17;;;;;;;;;;10398570;28;20133;-67
2022/09/22 07:40:36;;;;;;;2.38;0.80;;;;;;;;;;10381151;28;20084;-67
2022/09/22 07:45:38;;;;;;;3.45;0.98;;;;;;;;;;10384246;28;20400;-67
2022/09/22 07:50:40;;;;;;;2.60;1.60;;;;;;;;;;10366088;28;20600;-67
2022/09/22 07:55:44;;;;;;;3.22;0.80;;;;;;;;;;10390419;28;20108;-68
2022/09/22 08:00:46;;;;;;;1.15;0.68;;;;;;;;;;10392858;28;20077;-66
2022/09/22 08:05:51;;;;;;;2.17;1.02;;;;;;;;;;10393182;28;20056;-67
2022/09/22 08:10:54;;;;;;;3.08;0.90;;;;;;;;;;10378431;28;20088;-66
2022/09/22 08:15:56;;;;;;;1.63;0.70;;;;;;;;;;10371399;28;20076;-66
2022/09/22 08:21:00;;;;;;;2.63;0.85;;;;;;;;;;10350712;28;20107;-65
2022/09/22 08:26:06;;;;;;;4.78;0.60;;;;;;;;;;10375500;28;20140;-67
2022/09/22 08:31:12;;;;;;;2.90;0.90;;;;;;;;;;10375896;28;20128;-66
2022/09/22 08:36:15;;;;;;;2.90;1.10;;;;;;;;;;10351803;28;20049;-67
2022/09/22 08:41:27;;;;;;;3.05;1.20;;;;;;;;;;10373530;28;20041;-66
2022/09/22 08:46:33;;;;;;;2.38;0.88;;;;;;;;;;10367363;28;20042;-68
2022/09/22 08:51:56;;;;;;;2.40;0.60;;;;;;;;;;10366678;28;20230;-66
2022/09/22 08:57:20;;;;;;;2.08;0.57;;;;;;;;;;10372632;28;20053;-66
2022/09/22 09:02:43;;;;;;;4.43;1.23;;;;;;;;;;10357086;28;20049;-66
2022/09/22 09:08:04;;;;;;;1.20;0.50;;;;;;;;;;10361644;28;20045;-68
2022/09/22 09:13:06;;;;;;;0.70;0.38;;;;;;;;;;10390920;28;20147;-67
2022/09/22 09:18:13;;;;;;;1.60;0.60;;;;;;;;;;10387751;28;20055;-67
2022/09/22 09:23:51;;;;;;;1.83;0.43;;;;;;;;;;10386326;28;20053;-68
2022/09/22 09:29:19;;;;;;;1.92;0.60;;;;;;;;;;10301443;28;20050;-68
2022/09/22 09:34:23;;;;;;;4.82;0.40;;;;;;;;;;10383600;28;20106;-67
2022/09/22 09:39:30;;;;;;;2.08;0.40;;;;;;;;;;10367600;28;20135;-68
2022/09/22 09:44:38;;;;;;;2.55;0.60;;;;;;;;;;10396684;28;20076;-68
2022/09/22 09:49:41;;;;;;;0.93;0.50;;;;;;;;;;10384169;28;20041;-67
2022/09/22 09:54:46;;;;;;;4.05;0.40;;;;;;;;;;10369948;28;20054;-66
2022/09/22 10:05:16;;;;;;;1.65;0.30;;;;;;;;;;10390936;28;20133;-69
2022/09/22 10:10:23;;;;;;;0.60;0.30;;;;;;;;;;10386669;28;20072;-69
2022/09/22 10:15:26;;;;;;;3.15;0.40;;;;;;;;;;10377840;28;20096;-70
2022/09/22 10:20:30;;;;;;;3.55;0.57;;;;;;;;;;10383903;28;20053;-66
2022/09/22 10:25:32;;;;;;;0.43;0.20;;;;;;;;;;10374201;28;20566;-67
2022/09/22 10:30:36;;;;;;;3.22;1.00;;;;;;;;;;10375647;28;20523;-67
2022/09/22 10:35:38;;;;;;;0.85;0.20;;;;;;;;;;10389589;28;20135;-66
2022/09/22 10:40:42;;;;;;;2.10;0.50;;;;;;;;;;10372783;28;20055;-66
2022/09/22 10:48:07;;;;;;;4.55;0.35;;;;;;;;;;10309004;27;20575;-67
2022/09/22 10:53:12;;;;;;;2.15;0.40;;;;;;;;;;10363586;28;20503;-67
2022/09/22 10:58:22;;;;;;;1.08;0.30;;;;;;;;;;10342171;28;20084;-67
2022/09/22 11:03:34;;;;;;;2.95;0.20;;;;;;;;;;10382859;28;20054;-66
2022/09/22 11:14:43;;;;;;;0.80;0.30;;;;;;;;;;10376552;28;20041;-67
2022/09/22 11:19:57;;;;;;;2.65;0.32;;;;;;;;;;10417253;28;20129;-68
2022/09/22 11:25:18;;;;;;;1.25;0.20;;;;;;;;;;10412031;28;20049;-67
2022/09/22 11:30:21;;;;;;;1.42;0.20;;;;;;;;;;10412210;28;20137;-67
2022/09/22 11:35:42;;;;;;;0.55;0.22;;;;;;;;;;10418586;28;20053;-67
2022/09/22 11:41:05;;;;;;;0.43;0.25;;;;;;;;;;10410036;28;20136;-67
2022/09/22 11:46:07;;;;;;;5.15;0.28;;;;;;;;;;10414807;28;20478;-65
2022/09/22 11:51:25;;;;;;;0.65;0.10;;;;;;;;;;10412388;28;20400;-66
2022/09/22 11:56:27;;;;;;;;;;;;;;;;;;10402481;28;20144;-67
2022/09/22 12:01:31;;;;;;;0.77;0.20;;;;;;;;;;10384996;28;19936;-68
2022/09/22 12:06:36;;;;;;;1.20;0.10;;;;;;;;;;10385208;28;20120;-69
2022/09/22 12:11:39;;;;;;;0.75;0.10;;;;;;;;;;10386359;28;20668;-70
2022/09/22 12:16:54;;;;;;;1.45;0.17;;;;;;;;;;10364637;28;20160;-75
2022/09/22 12:22:15;;;;;;;0.40;0.10;;;;;;;;;;10379032;28;20135;-71
2022/09/22 12:27:21;;;;;;;1.25;0.10;;;;;;;;;;10398782;28;20459;-69
2022/09/22 12:32:26;;;;;;;0.10;0.10;;;;;;;;;;10386219;28;20053;-71
2022/09/22 12:37:30;;;;;;;1.63;0.10;;;;;;;;;;10382423;28;20057;-70
2022/09/22 12:42:34;;;;;;;2.42;0.30;;;;;;;;;;10382917;28;20493;-69
2022/09/22 12:47:40;;;;;;;2.83;0.20;;;;;;;;;;10378998;28;20136;-69
2022/09/22 12:52:42;;;;;;;0.77;0.10;;;;;;;;;;10387260;28;20083;-69
2022/09/22 12:57:46;;;;;;;0.60;0.10;;;;;;;;;;10384678;28;20623;-68
2022/09/22 13:02:49;;;;;;;1.75;0.30;;;;;;;;;;10381515;28;20627;-69
2022/09/22 13:07:52;;;;;;;2.05;0.10;;;;;;;;;;10378134;28;20130;-67
2022/09/22 13:13:08;;;;;;;2.47;0.20;;;;;;;;;;10383559;28;20136;-69
2022/09/22 13:18:28;;;;;;;0.40;0.15;;;;;;;;;;10378954;28;20054;-69
2022/09/22 13:23:30;;;;;;;0.20;0.17;;;;;;;;;;10368381;28;20124;-71
2022/09/22 13:28:32;;;;;;;1.73;0.20;;;;;;;;;;10384910;28;20551;-70
2022/09/22 13:33:35;;;;;;;3.13;0.20;;;;;;;;;;10360451;28;20068;-62
2022/09/22 13:38:39;;;;;;;0.95;0.10;;;;;;;;;;10379669;28;20049;-62
2022/09/22 13:43:43;;;;;;;2.15;0.20;;;;;;;;;;10382324;28;20077;-62
2022/09/22 13:48:45;;;;;;;1.08;0.50;;;;;;;;;;10382553;28;20499;-62
2022/09/22 13:53:50;;;;;;;0.55;0.15;;;;;;;;;;10381869;28;20044;-62
2022/09/22 13:58:55;;;;;;;0.60;0.13;;;;;;;;;;10385357;28;20073;-62
2022/09/22 14:03:57;;;;;;;0.98;0.20;;;;;;;;;;10382137;28;20104;-62
2022/09/22 14:09:00;;;;;;;1.65;0.10;;;;;;;;;;10384019;28;20057;-72
2022/09/22 14:14:03;;;;;;;1.80;0.20;;;;;;;;;;10375992;28;20089;-71
2022/09/22 14:19:08;;;;;;;0.73;0.10;;;;;;;;;;10377313;28;20060;-72
2022/09/22 14:24:12;;;;;;;0.73;0.25;;;;;;;;;;10381712;28;20050;-72
2022/09/22 14:29:21;;;;;;;0.52;0.10;;;;;;;;;;10376276;28;20125;-72
2022/09/22 14:34:25;;;;;;;0.77;0.10;;;;;;;;;;10373056;28;20124;-72
2022/09/22 14:39:32;;;;;;;2.25;0.10;;;;;;;;;;10374722;28;20041;-70
2022/09/22 14:44:42;;;;;;;1.15;0.20;;;;;;;;;;10381755;28;20084;-72
2022/09/22 14:49:46;;;;;;;0.20;0.10;;;;;;;;;;10384075;28;20050;-72
2022/09/22 14:54:49;;;;;;;3.03;0.13;;;;;;;;;;10379633;28;20111;-72
2022/09/22 15:05:26;;;;;;;0.57;0.03;;;;;;;;;;10380786;28;20364;-71
2022/09/22 15:10:33;;;;;;;0.70;0.30;;;;;;;;;;10379577;28;20064;-72
2022/09/22 15:15:44;;;;;;;2.28;0.20;;;;;;;;;;10380733;28;20294;-73
2022/09/22 15:20:54;;;;;;;1.10;0.10;;;;;;;;;;10379454;28;20041;-73
2022/09/22 15:26:05;;;;;;;2.53;0.20;;;;;;;;;;10375164;28;20488;-68
2022/09/22 15:31:10;;;;;;;4.15;0.10;;;;;;;;;;10381379;28;20468;-73
2022/09/22 15:36:14;;;;;;;1.90;0.30;;;;;;;;;;10387879;28;20049;-73
2022/09/22 15:41:16;;;;;;;0.10;0.10;;;;;;;;;;10387948;28;20223;-72
2022/09/22 15:46:27;;;;;;;0.40;0.20;;;;;;;;;;10374789;28;20065;-70
2022/09/22 15:51:30;;;;;;;0.55;0.20;;;;;;;;;;10365066;28;20558;-73
2022/09/22 15:56:34;;;;;;;1.10;0.20;;;;;;;;;;10386151;28;20569;-74
2022/09/22 16:01:36;;;;;;;3.92;0.47;;;;;;;;;;10390749;28;20450;-69
2022/09/22 16:06:39;;;;;;;4.32;0.20;;;;;;;;;;10379256;28;20037;-74
2022/09/22 16:11:42;;;;;;;1.13;0.22;;;;;;;;;;10385747;28;20141;-73
2022/09/22 16:16:44;;;;;;;4.53;0.30;;;;;;;;;;10383433;28;20300;-73
2022/09/22 16:21:50;;;;;;;0.28;0.20;;;;;;;;;;10387692;28;20045;-74
2022/09/22 16:26:53;;;;;;;3.50;0.20;;;;;;;;;;10386381;28;20049;-69
2022/09/22 16:31:57;;;;;;;0.65;0.17;;;;;;;;;;10373486;28;20403;-68
2022/09/22 16:36:59;;;;;;;0.75;0.20;;;;;;;;;;10368640;28;20463;-69
2022/09/22 16:42:02;;;;;;;0.63;0.20;;;;;;;;;;10383088;28;20115;-70
2022/09/22 16:47:04;;;;;;;0.20;0.10;;;;;;;;;;10384025;28;20567;-71
2022/09/22 16:52:08;;;;;;;4.72;0.30;;;;;;;;;;10380234;28;20049;-69
2022/09/22 16:57:10;;;;;;;1.45;0.13;;;;;;;;;;10380997;28;20092;-69
2022/09/22 17:02:12;;;;;;;1.65;0.20;;;;;;;;;;10383862;28;20866;-69
2022/09/22 17:07:16;;;;;;;0.57;0.10;;;;;;;;;;10378741;28;20054;-70
2022/09/22 17:12:18;;;;;;;0.77;0.20;;;;;;;;;;10384906;28;20129;-69
2022/09/22 17:17:21;;;;;;;0.40;0.20;;;;;;;;;;10375821;28;20049;-69
2022/09/22 17:22:23;;;;;;;2.67;0.20;;;;;;;;;;10378031;28;20587;-68
2022/09/22 17:27:26;;;;;;;2.85;0.30;;;;;;;;;;10372567;28;20053;-68
2022/09/22 17:32:29;;;;;;;2.70;0.30;;;;;;;;;;10379310;28;20049;-69
2022/09/22 17:37:31;;;;;;;2.53;0.55;;;;;;;;;;10377271;28;20061;-69
2022/09/22 17:42:36;;;;;;;6.30;0.60;;;;;;;;;;10378526;28;20137;-69
2022/09/22 17:58:21;;;;;;;6.07;1.50;;;;;;;;;;10380738;28;20125;-70
2022/09/22 18:03:23;;;;;;;3.30;0.70;;;;;;;;;;10383585;28;20057;-69
2022/09/22 18:08:25;;;;;;;1.45;0.50;;;;;;;;;;10377997;28;20045;-69
2022/09/22 18:13:27;;;;;;;9.70;0.80;;;;;;;;;;10375919;28;20128;-69
2022/09/22 18:18:29;;;;;;;4.03;1.27;;;;;;;;;;10382678;28;20131;-69
2022/09/22 18:23:31;;;;;;;5.63;1.58;;;;;;;;;;10380415;28;20052;-68
2022/09/22 18:28:35;;;;;;;8.15;3.13;;;;;;;;;;10355609;28;20054;-69
2022/09/22 18:33:37;;;;;;;7.55;3.58;;;;;;;;;;10379304;28;20132;-68
2022/09/22 18:38:41;;;;;;;6.82;3.05;;;;;;;;;;10377947;28;20064;-68
2022/09/22 18:43:44;;;;;;;1.40;0.70;;;;;;;;;;10376925;28;20084;-69
2022/09/22 18:48:47;;;;;;;4.38;0.77;;;;;;;;;;10377442;28;20133;-69
2022/09/22 18:53:50;;;;;;;5.75;0.60;;;;;;;;;;10374774;28;20053;-68
2022/09/22 18:58:53;;;;;;;4.20;0.80;;;;;;;;;;10373918;28;20099;-70
2022/09/22 19:03:57;;;;;;;5.65;1.80;;;;;;;;;;10376493;28;20107;-70
2022/09/22 19:08:59;;;;;;;9.43;1.77;;;;;;;;;;10389270;28;20049;-63
2022/09/22 19:14:02;;;;;;;3.40;0.90;;;;;;;;;;10389635;28;20459;-63
2022/09/22 19:19:04;;;;;;;4.40;0.77;;;;;;;;;;10386931;28;20121;-63
2022/09/22 19:24:08;;;;;;;5.05;0.98;;;;;;;;;;10390735;28;20095;-63
2022/09/22 19:29:11;;;;;;;3.13;0.93;;;;;;;;;;10388680;28;20049;-63
2022/09/22 19:34:13;;;;;;;2.78;1.17;;;;;;;;;;10384322;28;20059;-63
2022/09/22 19:39:15;;;;;;;6.15;1.75;;;;;;;;;;10384597;28;20065;-63
2022/09/22 19:44:19;;;;;;;3.85;1.30;;;;;;;;;;10388985;28;20567;-62
2022/09/22 19:49:22;;;;;;;3.67;1.90;;;;;;;;;;10383419;28;20057;-62
2022/09/22 19:54:24;;;;;;;4.97;2.85;;;;;;;;;;10388368;28;20148;-62
2022/09/22 19:59:26;;;;;;;3.35;1.95;;;;;;;;;;10386963;28;20136;-63
2022/09/22 20:04:32;;;;;;;1.92;0.88;;;;;;;;;;10385064;28;20456;-64
2022/09/22 20:09:34;;;;;;;3.08;0.93;;;;;;;;;;10386037;28;20554;-63
2022/09/22 20:14:36;;;;;;;2.80;0.95;;;;;;;;;;10386043;28;20055;-62
2022/09/22 20:19:39;;;;;;;4.05;1.42;;;;;;;;;;10385095;28;20055;-62
2022/09/22 20:24:41;;;;;;;2.00;1.33;;;;;;;;;;10390992;28;20057;-62
2022/09/22 20:29:43;;;;;;;6.45;1.63;;;;;;;;;;10388422;28;20410;-61
2022/09/22 20:34:45;;;;;;;5.97;1.17;;;;;;;;;;10386500;28;20132;-61
2022/09/22 20:39:48;;;;;;;2.15;1.00;;;;;;;;;;10372735;28;20073;-63
2022/09/22 20:44:50;;;;;;;2.40;0.88;;;;;;;;;;10384478;28;20145;-63
2022/09/22 20:49:52;;;;;;;3.22;1.25;;;;;;;;;;10386086;28;20128;-62
2022/09/22 20:54:54;;;;;;;3.83;1.60;;;;;;;;;;10382532;28;20045;-62
2022/09/22 20:59:56;;;;;;;5.00;0.88;;;;;;;;;;10384258;28;20156;-61
2022/09/22 21:04:59;;;;;;;1.30;0.80;;;;;;;;;;10386879;28;20054;-62
2022/09/22 21:15:23;;;;;;;1.77;0.98;;;;;;;;;;10383566;28;20136;-61
2022/09/22 21:20:25;;;;;;;5.57;1.10;;;;;;;;;;10387347;28;20057;-63
2022/09/22 21:25:28;;;;;;;3.40;1.13;;;;;;;;;;10384958;28;20044;-62
2022/09/22 21:30:30;;;;;;;1.50;1.00;;;;;;;;;;10382299;28;20144;-62
2022/09/22 21:35:32;;;;;;;1.50;0.88;;;;;;;;;;10386018;28;20049;-62
2022/09/22 21:40:34;;;;;;;3.65;0.73;;;;;;;;;;10379256;28;20061;-62
2022/09/22 21:45:36;;;;;;;2.90;0.80;;;;;;;;;;10383462;28;20049;-62
2022/09/22 21:50:38;;;;;;;1.45;0.80;;;;;;;;;;10381346;28;20129;-62
2022/09/22 21:55:40;;;;;;;2.78;1.45;;;;;;;;;;10385977;28;20077;-62
2022/09/22 22:00:42;;;;;;;3.00;0.95;;;;;;;;;;10385652;28;20058;-62
2022/09/22 22:05:58;;;;;;;4.45;0.77;;;;;;;;;;10384176;28;20096;-62
2022/09/22 22:11:03;;;;;;;1.10;0.63;;;;;;;;;;10382917;28;20480;-62
2022/09/22 22:16:07;;;;;;;1.48;0.70;;;;;;;;;;10374432;28;20522;-62
2022/09/22 22:21:13;;;;;;;3.95;1.10;;;;;;;;;;10384768;28;20045;-61
2022/09/22 22:26:18;;;;;;;4.07;1.17;;;;;;;;;;10385565;28;20096;-61
2022/09/22 22:31:22;;;;;;;2.40;1.05;;;;;;;;;;10374630;28;20049;-62
2022/09/22 22:36:24;;;;;;;1.75;0.60;;;;;;;;;;10384702;28;20372;-63
2022/09/22 22:41:26;;;;;;;3.58;0.98;;;;;;;;;;10381778;28;20128;-62
2022/09/22 22:46:28;;;;;;;2.10;0.68;;;;;;;;;;10381447;28;20053;-62
2022/09/22 22:51:31;;;;;;;3.58;1.00;;;;;;;;;;10376581;28;20060;-63
2022/09/22 22:56:33;;;;;;;3.03;0.70;;;;;;;;;;10373449;28;20500;-63
2022/09/22 23:01:35;;;;;;;3.88;0.85;;;;;;;;;;10381976;28;20519;-62
2022/09/22 23:06:42;;;;;;;2.15;0.68;;;;;;;;;;10381696;28;20058;-62
2022/09/22 23:11:45;;;;;;;2.90;0.70;;;;;;;;;;10369815;28;20530;-62
2022/09/22 23:16:48;;;;;;;2.70;0.60;;;;;;;;;;10380290;28;20156;-62
2022/09/22 23:21:50;;;;;;;2.42;0.80;;;;;;;;;;10380874;28;20042;-62
2022/09/22 23:26:53;;;;;;;1.73;0.65;;;;;;;;;;10379363;28;20057;-63
2022/09/22 23:31:55;;;;;;;4.00;1.33;;;;;;;;;;10376416;28;20117;-63
2022/09/22 23:36:57;;;;;;;2.38;0.90;;;;;;;;;;10382609;28;20049;-62
2022/09/22 23:41:59;;;;;;;2.28;0.80;;;;;;;;;;10380534;28;20065;-61
2022/09/22 23:47:02;;;;;;;1.48;0.75;;;;;;;;;;10377035;28;20140;-63
2022/09/22 23:52:04;;;;;;;1.45;0.85;;;;;;;;;;10376823;28;20132;-63
2022/09/22 23:57:06;;;;;;;3.70;0.82;;;;;;;;;;10387381;28;20053;-62
